Time;durP1;ratioP1;P1;durP2;ratioP2;P2;SDS_P1;SDS_P2;PMS_P1;PMS_P2;Temp;Humidity;BMP_temperature;BMP_pressure;BME280_temperature;BME280_humidity;BME280_pressure;Samples;Min_cycle;Max_cycle;Signal;HPM_P1;HPM_P2
2022/08/20 00:01:07;;;;;;;12.23;10.98;;;;;;;24.03;100.00;100365.87;1746408;81;21048;-68
2022/08/20 00:03:39;;;;;;;14.40;11.22;;;;;;;24.06;100.00;100361.59;1740153;81;20991;-69
2022/08/20 00:06:13;;;;;;;13.60;10.80;;;;;;;24.02;100.00;100363.39;1742718;81;21019;-69
2022/08/20 00:08:42;;;;;;;12.05;10.78;;;;;;;24.03;100.00;100363.72;1751524;80;21533;-69
2022/08/20 00:11:14;;;;;;;13.08;10.90;;;;;;;24.01;100.00;100367.84;1755941;80;20990;-69
2022/08/20 00:13:48;;;;;;;13.53;11.38;;;;;;;24.08;100.00;100372.78;1737331;82;21071;-69
2022/08/20 00:16:18;;;;;;;13.38;11.33;;;;;;;24.04;100.00;100373.27;1740738;80;21090;-69
2022/08/20 00:18:46;;;;;;;13.93;11.20;;;;;;;24.04;100.00;100379.34;1740219;81;21084;-69
2022/08/20 00:21:16;;;;;;;13.75;11.45;;;;;;;24.02;100.00;100377.86;1749055;81;21027;-70
2022/08/20 00:23:47;;;;;;;12.70;11.40;;;;;;;23.97;100.00;100380.97;1744057;81;21057;-69
2022/08/20 00:26:17;;;;;;;14.10;11.50;;;;;;;23.99;100.00;100377.69;1747371;81;21550;-69
2022/08/20 00:28:45;;;;;;;16.80;11.73;;;;;;;24.02;100.00;100381.30;1749327;81;21045;-69
2022/08/20 00:31:18;;;;;;;12.70;11.48;;;;;;;24.06;100.00;100382.63;1749946;80;21032;-69
2022/08/20 00:33:46;;;;;;;12.50;10.67;;;;;;;24.12;100.00;100387.26;1741963;80;21028;-70
2022/08/20 00:36:16;;;;;;;15.70;11.70;;;;;;;24.10;100.00;100384.47;1744289;81;21056;-69
2022/08/20 00:38:45;;;;;;;12.93;11.60;;;;;;;23.99;100.00;100389.52;1752420;81;21111;-70
2022/08/20 00:41:17;;;;;;;15.03;10.93;;;;;;;23.99;100.00;100389.52;1751860;81;21081;-69
2022/08/20 00:43:52;;;;;;;12.85;11.00;;;;;;;24.00;100.00;100391.16;1734222;81;21022;-69
2022/08/20 00:46:24;;;;;;;13.40;10.70;;;;;;;23.99;100.00;100396.91;1720336;81;21578;-68
2022/08/20 00:48:55;;;;;;;13.85;11.12;;;;;;;23.98;100.00;100403.14;1745506;81;21559;-69
2022/08/20 00:51:33;;;;;;;14.45;11.28;;;;;;;23.98;100.00;100407.08;1744425;80;21074;-69
2022/08/20 00:54:12;;;;;;;12.90;10.53;;;;;;;23.95;100.00;100401.34;1719566;81;21060;-69
2022/08/20 00:56:42;;;;;;;15.58;11.10;;;;;;;23.91;100.00;100407.89;1736049;81;20991;-69
2022/08/20 00:59:15;;;;;;;16.32;11.68;;;;;;;23.90;100.00;100400.47;1749959;80;21471;-69
2022/08/20 01:01:44;;;;;;;14.00;11.88;;;;;;;23.93;100.00;100404.12;1758140;81;21055;-69
2022/08/20 01:04:11;;;;;;;15.68;12.45;;;;;;;23.92;100.00;100408.21;1740269;80;20977;-69
2022/08/20 01:06:40;;;;;;;16.82;13.20;;;;;;;23.94;100.00;100411.01;1732489;81;21004;-69
2022/08/20 01:09:08;;;;;;;16.05;13.60;;;;;;;23.99;100.00;100415.81;1738252;81;20995;-69
2022/08/20 01:11:36;;;;;;;17.30;13.32;;;;;;;24.08;100.00;100424.06;1761776;80;21067;-69
2022/08/20 01:14:53;;;;;;;15.45;12.43;;;;;;;24.11;100.00;100424.26;1744888;81;21535;-68
2022/08/20 01:16:45;;;;;;;15.63;11.97;;;;;;;23.98;100.00;100423.36;1737639;81;21013;-70
2022/08/20 01:19:15;;;;;;;15.60;11.30;;;;;;;24.06;100.00;100427.34;1747602;80;21507;-69
2022/08/20 01:21:43;;;;;;;18.67;11.97;;;;;;;24.05;100.00;100433.59;1752143;80;21023;-69
2022/08/20 01:24:26;;;;;;;13.85;11.28;;;;;;;23.91;100.00;100426.30;1753137;80;21048;-69
2022/08/20 01:26:54;;;;;;;14.83;10.78;;;;;;;23.88;100.00;100422.65;1748603;81;21026;-69
2022/08/20 01:29:28;;;;;;;13.50;10.10;;;;;;;23.72;100.00;100422.88;1737191;81;21032;-69
2022/08/20 01:32:00;;;;;;;11.70;9.35;;;;;;;23.49;100.00;100421.73;1741173;81;21004;-69
2022/08/20 01:34:24;;;;;;;13.65;9.65;;;;;;;23.65;100.00;100427.09;1737614;81;21121;-69
2022/08/20 01:36:56;;;;;;;14.35;10.45;;;;;;;23.60;100.00;100419.68;1738450;80;21011;-69
2022/08/20 01:39:28;;;;;;;15.38;11.63;;;;;;;23.53;100.00;100421.26;1747567;80;20969;-69
2022/08/20 01:42:11;;;;;;;18.30;13.25;;;;;;;23.40;100.00;100425.61;1745767;81;21069;-69
2022/08/20 01:44:41;;;;;;;17.20;12.28;;;;;;;23.55;100.00;100424.56;1755316;80;21044;-69
2022/08/20 01:47:22;;;;;;;20.30;14.13;;;;;;;23.37;100.00;100426.41;1744915;80;21498;-70
2022/08/20 01:49:55;;;;;;;21.20;15.50;;;;;;;23.44;100.00;100428.77;1736014;81;20990;-70
2022/08/20 01:52:44;;;;;;;25.80;16.25;;;;;;;23.36;100.00;100426.08;1738386;81;21015;-70
2022/08/20 01:55:11;;;;;;;23.30;15.58;;;;;;;23.19;100.00;100426.42;1744850;81;21529;-69
2022/08/20 01:57:40;;;;;;;23.50;16.80;;;;;;;23.34;100.00;100426.23;1740877;81;21022;-69
2022/08/20 02:00:12;;;;;;;24.60;15.72;;;;;;;23.36;100.00;100426.90;1749728;81;21017;-69
2022/08/20 02:02:40;;;;;;;25.32;16.35;;;;;;;23.45;100.00;100428.27;1740477;81;20997;-69
2022/08/20 02:05:10;;;;;;;25.02;15.13;;;;;;;23.43;100.00;100428.91;1746353;81;21480;-69
2022/08/20 02:07:38;;;;;;;24.85;15.50;;;;;;;23.33;100.00;100429.81;1743631;81;21460;-69
2022/08/20 02:10:10;;;;;;;25.60;17.07;;;;;;;23.26;100.00;100427.48;1740044;81;21016;-69
2022/08/20 02:12:38;;;;;;;28.40;18.77;;;;;;;23.28;100.00;100435.21;1739565;81;21057;-69
2022/08/20 02:15:09;;;;;;;31.52;19.77;;;;;;;23.31;100.00;100437.02;1733004;81;21071;-69
2022/08/20 02:17:38;;;;;;;31.97;18.95;;;;;;;23.23;100.00;100431.70;1732989;81;21046;-69
2022/08/20 02:20:13;;;;;;;24.77;17.98;;;;;;;23.24;100.00;100431.24;1721882;82;21044;-69
2022/08/20 02:22:46;;;;;;;28.80;17.17;;;;;;;23.22;100.00;100434.51;1724086;82;21526;-70
2022/08/20 02:25:15;;;;;;;28.60;16.00;;;;;;;23.11;100.00;100435.05;1722042;82;21190;-69
2022/08/20 02:27:45;;;;;;;30.55;15.63;;;;;;;23.06;100.00;100439.94;1731894;82;21167;-69
2022/08/20 02:30:20;;;;;;;23.20;13.78;;;;;;;23.09;100.00;100436.19;1739500;81;21030;-67
2022/08/20 02:32:48;;;;;;;24.00;14.55;;;;;;;23.07;100.00;100437.64;1719639;82;21066;-69
2022/08/20 02:35:17;;;;;;;26.97;13.48;;;;;;;23.06;100.00;100447.00;1716453;81;21060;-69
2022/08/20 02:37:46;;;;;;;22.67;13.32;;;;;;;23.05;100.00;100441.40;1734423;82;21025;-69
2022/08/20 02:40:17;;;;;;;23.02;12.88;;;;;;;23.06;100.00;100448.31;1729204;82;21542;-69
2022/08/20 02:42:44;;;;;;;23.10;12.65;;;;;;;23.00;100.00;100449.70;1738337;82;21054;-69
2022/08/20 02:45:15;;;;;;;22.15;12.23;;;;;;;23.01;100.00;100456.59;1732194;82;21029;-69
2022/08/20 02:47:44;;;;;;;25.27;11.63;;;;;;;23.03;100.00;100457.30;1732710;81;21640;-69
2022/08/20 02:50:16;;;;;;;24.40;12.00;;;;;;;23.03;100.00;100469.11;1731505;82;21537;-69
2022/08/20 02:52:45;;;;;;;22.62;11.03;;;;;;;23.05;100.00;100477.66;1744076;81;21049;-69
2022/08/20 02:55:15;;;;;;;17.57;10.58;;;;;;;22.99;100.00;100477.77;1737406;82;21042;-68
2022/08/20 02:57:44;;;;;;;20.15;10.43;;;;;;;22.98;100.00;100473.47;1722311;82;21514;-69
2022/08/20 03:00:19;;;;;;;21.93;11.10;;;;;;;22.97;100.00;100471.84;1732296;82;21080;-69
2022/08/20 03:02:47;;;;;;;22.22;10.40;;;;;;;23.05;100.00;100470.28;1734745;82;21080;-69
2022/08/20 03:05:14;;;;;;;22.00;10.32;;;;;;;23.10;100.00;100474.61;1730501;82;21033;-69
2022/08/20 03:07:48;;;;;;;21.27;10.72;;;;;;;23.11;100.00;100470.50;1741232;81;21054;-69
2022/08/20 03:10:16;;;;;;;17.57;9.93;;;;;;;23.17;100.00;100476.95;1726813;82;21018;-69
2022/08/20 03:12:44;;;;;;;21.57;10.50;;;;;;;23.14;100.00;100473.33;1734966;82;21098;-69
2022/08/20 03:15:11;;;;;;;21.55;10.25;;;;;;;23.17;100.00;100476.95;1730402;82;21042;-69
2022/08/20 03:17:38;;;;;;;20.05;9.90;;;;;;;23.15;100.00;100481.53;1736686;82;21086;-69
2022/08/20 03:20:08;;;;;;;23.05;10.15;;;;;;;23.13;100.00;100486.11;1721592;82;21034;-69
2022/08/20 03:22:35;;;;;;;21.77;10.65;;;;;;;23.11;100.00;100484.13;1735456;82;21081;-69
2022/08/20 03:25:06;;;;;;;22.07;10.15;;;;;;;23.17;100.00;100483.52;1743340;82;21171;-68
2022/08/20 03:27:34;;;;;;;27.65;10.65;;;;;;;23.19;100.00;100480.25;1724403;82;21021;-68
2022/08/20 03:30:01;;;;;;;20.48;9.85;;;;;;;23.22;100.00;100479.97;1728854;82;21076;-69
2022/08/20 03:32:28;;;;;;;22.40;10.45;;;;;;;23.28;100.00;100475.42;1731388;82;21580;-68
2022/08/20 03:34:55;;;;;;;24.70;10.45;;;;;;;23.33;100.00;100481.03;1725748;82;21033;-69
2022/08/20 03:37:24;;;;;;;22.25;11.03;;;;;;;23.36;100.00;100478.13;1733007;82;21046;-69
2022/08/20 03:39:51;;;;;;;20.72;10.78;;;;;;;23.43;100.00;100477.52;1736507;82;21041;-68
2022/08/20 03:42:19;;;;;;;25.57;10.25;;;;;;;23.54;100.00;100478.56;1744521;82;21060;-68
2022/08/20 03:44:48;;;;;;;28.27;10.48;;;;;;;23.44;100.00;100481.31;1738435;81;21549;-68
2022/08/20 03:47:15;;;;;;;24.92;10.30;;;;;;;23.49;100.00;100486.09;1734652;82;21046;-68
2022/08/20 03:49:42;;;;;;;26.73;9.85;;;;;;;23.59;100.00;100484.20;1740322;82;21123;-68
2022/08/20 03:52:10;;;;;;;26.65;9.98;;;;;;;23.56;100.00;100485.81;1721970;81;21012;-68
2022/08/20 03:54:37;;;;;;;23.60;10.45;;;;;;;23.62;100.00;100489.14;1740146;81;21099;-67
2022/08/20 03:57:05;;;;;;;29.48;9.80;;;;;;;23.70;100.00;100490.55;1736253;81;21071;-67
2022/08/20 03:59:32;;;;;;;21.87;9.65;;;;;;;23.86;100.00;100495.59;1735647;81;21119;-68
2022/08/20 04:02:00;;;;;;;23.27;10.50;;;;;;;23.84;100.00;100490.97;1711340;81;21005;-68
2022/08/20 04:04:27;;;;;;;27.65;10.30;;;;;;;23.99;100.00;100494.20;1719194;82;21048;-69
2022/08/20 04:06:56;;;;;;;26.30;10.08;;;;;;;24.07;100.00;100497.38;1735558;81;21049;-68
2022/08/20 04:09:23;;;;;;;23.42;10.38;;;;;;;24.00;100.00;100503.72;1719965;81;21084;-68
2022/08/20 04:11:53;;;;;;;28.77;9.88;;;;;;;24.05;100.00;100505.91;1731529;81;21044;-68
2022/08/20 04:14:20;;;;;;;25.50;10.85;;;;;;;24.16;100.00;100502.18;1739943;81;21092;-69
2022/08/20 04:16:47;;;;;;;31.90;10.38;;;;;;;24.14;100.00;100504.95;1735201;82;21065;-68
2022/08/20 04:19:15;;;;;;;26.37;9.65;;;;;;;24.10;100.00;100508.06;1743118;81;21044;-68
2022/08/20 04:21:42;;;;;;;33.90;10.32;;;;;;;24.11;100.00;100510.55;1744288;80;21565;-67
2022/08/20 04:24:09;;;;;;;30.75;10.18;;;;;;;24.36;100.00;100511.98;1757872;81;21549;-68
2022/08/20 04:26:36;;;;;;;29.25;9.60;;;;;;;24.45;100.00;100508.39;1737418;81;21010;-68
2022/08/20 04:29:05;;;;;;;32.63;9.68;;;;;;;24.54;100.00;100520.64;1731960;82;21074;-68
2022/08/20 04:31:33;;;;;;;24.85;10.20;;;;;;;24.67;100.00;100516.73;1733102;81;21046;-68
2022/08/20 04:34:03;;;;;;;26.33;9.73;;;;;;;24.71;100.00;100520.70;1741526;81;21059;-68
2022/08/20 04:36:31;;;;;;;25.72;9.78;;;;;;;24.82;100.00;100515.63;1721881;82;21004;-68
2022/08/20 04:38:58;;;;;;;27.67;10.63;;;;;;;24.60;100.00;100520.51;1724017;81;21052;-68
2022/08/20 04:41:27;;;;;;;30.02;10.75;;;;;;;24.53;100.00;100521.64;1727094;81;21031;-68
2022/08/20 04:43:55;;;;;;;37.00;11.22;;;;;;;24.57;100.00;100522.13;1719257;81;21057;-68
2022/08/20 04:46:26;;;;;;;27.73;10.28;;;;;;;24.54;100.00;100529.85;1727630;81;21026;-68
2022/08/20 04:48:56;;;;;;;33.95;10.35;;;;;;;24.47;100.00;100533.23;1718498;81;21039;-68
2022/08/20 04:51:24;;;;;;;35.63;10.70;;;;;;;24.51;100.00;100528.87;1728370;81;21044;-68
2022/08/20 04:53:53;;;;;;;30.92;10.93;;;;;;;24.59;100.00;100522.79;1749825;81;21045;-68
2022/08/20 04:56:26;;;;;;;29.98;10.55;;;;;;;24.54;100.00;100515.88;1723808;81;21027;-68
2022/08/20 04:58:58;;;;;;;41.60;11.48;;;;;;;24.63;100.00;100519.36;1730259;81;21067;-68
2022/08/20 05:01:27;;;;;;;37.75;11.65;;;;;;;24.80;100.00;100521.08;1749280;81;21057;-68
2022/08/20 05:03:58;;;;;;;34.30;10.98;;;;;;;24.88;100.00;100529.00;1741631;81;21049;-68
2022/08/20 05:06:29;;;;;;;40.55;11.53;;;;;;;24.85;100.00;100527.98;1735792;82;21086;-68
2022/08/20 05:08:59;;;;;;;32.00;10.63;;;;;;;24.83;100.00;100523.88;1734957;81;21057;-68
2022/08/20 05:11:27;;;;;;;33.50;11.40;;;;;;;24.83;100.00;100518.11;1740342;82;21040;-68
2022/08/20 05:13:55;;;;;;;34.33;10.50;;;;;;;24.65;100.00;100518.70;1730992;81;21139;-68
2022/08/20 05:16:23;;;;;;;36.40;10.80;;;;;;;24.76;100.00;100521.06;1748142;81;21013;-68
2022/08/20 05:18:50;;;;;;;35.92;10.60;;;;;;;24.83;100.00;100513.34;1746459;80;21012;-68
2022/08/20 05:21:18;;;;;;;32.50;10.43;;;;;;;24.83;100.00;100513.34;1745401;80;21509;-68
2022/08/20 05:23:45;;;;;;;36.33;9.80;;;;;;;24.88;100.00;100510.56;1746309;81;21035;-68
2022/08/20 05:26:14;;;;;;;42.88;10.43;;;;;;;24.98;100.00;100511.24;1753773;80;21509;-68
2022/08/20 05:28:44;;;;;;;30.25;9.65;;;;;;;25.06;100.00;100513.55;1743589;81;22034;-68
2022/08/20 05:31:11;;;;;;;32.53;10.28;;;;;;;25.04;100.00;100512.41;1736266;80;21011;-68
2022/08/20 05:33:39;;;;;;;36.40;10.13;;;;;;;25.02;100.00;100513.06;1729677;81;21083;-68
2022/08/20 05:36:07;;;;;;;33.45;10.10;;;;;;;25.13;100.00;100521.96;1733926;82;21516;-68
2022/08/20 05:38:36;;;;;;;38.83;10.32;;;;;;;25.13;100.00;100521.96;1722332;82;21162;-68
2022/08/20 05:41:04;;;;;;;38.23;10.15;;;;;;;25.45;100.00;100509.84;1732321;82;21066;-68
2022/08/20 05:43:33;;;;;;;38.45;10.30;;;;;;;25.64;100.00;100521.86;1733191;82;21074;-68
2022/08/20 05:46:02;;;;;;;36.03;9.95;;;;;;;25.64;100.00;100521.86;1734600;82;21156;-68
2022/08/20 05:48:29;;;;;;;35.75;10.00;;;;;;;25.65;100.00;100514.29;1738533;82;21087;-68
2022/08/20 05:50:57;;;;;;;32.40;9.60;;;;;;;25.78;100.00;100519.86;1741409;82;21052;-68
2022/08/20 05:53:25;;;;;;;38.70;10.20;;;;;;;26.03;100.00;100515.08;1729039;82;21035;-67
2022/08/20 05:55:53;;;;;;;38.20;9.90;;;;;;;26.03;100.00;100515.08;1731669;82;21083;-67
2022/08/20 05:58:25;;;;;;;36.75;9.78;;;;;;;26.14;100.00;100520.83;1733818;82;21078;-67
2022/08/20 06:00:53;;;;;;;39.92;9.98;;;;;;;26.38;100.00;100510.69;1719695;81;20987;-68
2022/08/20 06:06:11;;;;;;;39.30;9.63;;;;;;;26.40;100.00;100505.25;1723162;81;21035;-67
2022/08/20 06:08:41;;;;;;;35.75;9.90;;;;;;;26.51;100.00;100496.12;1765541;80;21000;-67
2022/08/20 06:11:08;;;;;;;40.48;9.55;;;;;;;26.58;100.00;100498.41;1751709;80;21608;-67
2022/08/20 06:13:36;;;;;;;46.95;10.13;;;;;;;26.60;100.00;100497.73;1743808;81;21104;-68
2022/08/20 06:16:03;;;;;;;59.10;11.60;;;;;;;26.66;100.00;100506.80;1745186;80;21584;-68
2022/08/20 06:18:31;;;;;;;43.95;10.45;;;;;;;26.82;100.00;100508.53;1746925;81;21156;-68
2022/08/20 06:20:58;;;;;;;30.02;9.88;;;;;;;26.83;100.00;100509.69;1745189;81;21016;-68
2022/08/20 06:23:26;;;;;;;39.27;10.90;;;;;;;27.00;100.00;100510.91;1734766;81;21010;-68
2022/08/20 06:25:53;;;;;;;37.28;9.98;;;;;;;26.90;100.00;100507.97;1720831;82;21092;-68
2022/08/20 06:28:20;;;;;;;36.85;10.50;;;;;;;26.77;100.00;100509.88;1717872;82;21065;-68
2022/08/20 06:30:47;;;;;;;36.98;11.12;;;;;;;26.82;100.00;100506.70;1729930;82;21069;-68
2022/08/20 06:33:14;;;;;;;31.85;9.20;;;;;;;27.00;100.00;100509.58;1722336;81;21076;-68
2022/08/20 06:35:43;;;;;;;32.05;10.35;;;;;;;27.02;100.00;100506.27;1710567;82;21049;-68
2022/08/20 06:38:11;;;;;;;28.85;9.90;;;;;;;27.25;100.00;100512.89;1723109;81;21486;-68
2022/08/20 06:40:38;;;;;;;34.05;10.20;;;;;;;27.47;100.00;100504.63;1734472;82;21574;-68
2022/08/20 06:43:07;;;;;;;31.77;10.23;;;;;;;27.63;100.00;100503.67;1731215;82;21070;-68
2022/08/20 06:45:37;;;;;;;35.55;11.45;;;;;;;27.62;100.00;100506.02;1734358;82;21525;-68
2022/08/20 06:48:14;;;;;;;39.45;10.60;;;;;;;27.72;100.00;100504.74;1710360;82;21521;-68
2022/08/20 06:50:45;;;;;;;38.60;11.45;;;;;;;27.85;100.00;100504.63;1725282;82;21537;-68
2022/08/20 06:53:16;;;;;;;31.40;10.38;;;;;;;27.92;100.00;100503.75;1737478;82;21521;-68
2022/08/20 06:55:49;;;;;;;34.43;10.38;;;;;;;27.93;100.00;100499.27;1718902;82;21033;-68
2022/08/20 06:58:17;;;;;;;32.23;10.50;;;;;;;28.14;100.00;100502.51;1728995;82;21513;-68
2022/08/20 07:00:45;;;;;;;30.68;10.60;;;;;;;28.23;100.00;100492.67;1724186;82;21056;-68
2022/08/20 07:03:13;;;;;;;27.15;10.40;;;;;;;28.29;100.00;100495.39;1712176;82;21541;-68
2022/08/20 07:05:44;;;;;;;36.35;11.55;;;;;;;28.59;100.00;100498.52;1721365;82;21143;-68
2022/08/20 07:08:13;;;;;;;32.60;10.03;;;;;;;28.38;100.00;100492.95;1722061;82;21002;-68
2022/08/20 07:10:44;;;;;;;23.87;10.50;;;;;;;28.49;100.00;100500.12;1747154;81;21026;-68
2022/08/20 07:13:14;;;;;;;42.60;11.90;;;;;;;28.65;100.00;100499.94;1738818;82;21137;-68
2022/08/20 07:15:44;;;;;;;27.60;10.45;;;;;;;28.73;100.00;100498.98;1729245;82;21536;-68
2022/08/20 07:18:13;;;;;;;52.98;11.65;;;;;;;28.58;100.00;100500.36;1730614;82;21517;-68
2022/08/20 07:20:41;;;;;;;40.08;11.97;;;;;;;28.56;100.00;100497.88;1732508;82;21034;-68
2022/08/20 07:23:10;;;;;;;36.58;10.55;;;;;;;28.54;100.00;100506.52;1719439;82;21577;-68
2022/08/20 07:25:41;;;;;;;25.23;10.63;;;;;;;28.61;100.00;100497.34;1716220;82;21061;-68
2022/08/20 07:28:15;;;;;;;30.68;10.38;;;;;;;28.41;100.00;100503.69;1733296;82;21033;-68
2022/08/20 07:33:30;;;;;;;31.40;10.88;;;;;;;29.38;100.00;100507.83;1720846;82;21089;-69
2022/08/20 07:36:00;;;;;;;24.40;10.20;;;;;;;29.69;100.00;100507.45;1735382;82;21041;-68
2022/08/20 07:38:29;;;;;;;28.47;9.80;;;;;;;29.60;100.00;100505.94;1731810;82;21111;-69
2022/08/20 07:41:04;;;;;;;23.73;10.60;;;;;;;29.88;100.00;100501.17;1711074;82;21064;-69
2022/08/20 07:43:32;;;;;;;30.00;10.93;;;;;;;30.26;100.00;100502.10;1712963;82;21552;-69
2022/08/20 07:46:06;;;;;;;32.10;10.95;;;;;;;30.29;100.00;100501.69;1734725;82;21025;-69
2022/08/20 07:48:31;;;;;;;29.48;10.50;;;;;;;30.48;100.00;100509.48;1731986;82;21076;-69
2022/08/20 07:51:04;;;;;;;31.35;10.80;;;;;;;30.90;100.00;100505.75;1715101;82;21127;-69
2022/08/20 07:53:34;;;;;;;28.73;11.70;;;;;;;31.01;99.16;100514.97;1695143;83;21121;-69
2022/08/20 07:56:06;;;;;;;28.98;10.72;;;;;;;30.85;97.27;100521.44;1707002;82;21061;-69
2022/08/20 07:58:35;;;;;;;25.45;10.72;;;;;;;30.88;94.66;100514.92;1725914;82;21072;-69
2022/08/20 08:01:05;;;;;;;25.40;11.25;;;;;;;30.53;97.00;100525.11;1713919;82;21065;-69
2022/08/20 08:03:33;;;;;;;35.78;11.40;;;;;;;30.59;96.97;100519.52;1732723;82;21041;-69
2022/08/20 08:06:00;;;;;;;34.60;11.33;;;;;;;30.98;96.39;100515.36;1715770;82;21108;-66
2022/08/20 08:08:31;;;;;;;29.85;10.78;;;;;;;31.23;95.45;100505.49;1744782;80;20984;-67
2022/08/20 08:11:02;;;;;;;26.55;10.65;;;;;;;31.42;93.65;100521.14;1758900;80;21087;-67
2022/08/20 08:13:34;;;;;;;27.07;10.60;;;;;;;31.20;94.47;100511.20;1759557;81;21630;-67
2022/08/20 08:16:04;;;;;;;29.12;10.85;;;;;;;31.27;96.13;100506.20;1762338;80;21074;-67
2022/08/20 08:18:43;;;;;;;39.98;11.28;;;;;;;31.55;94.10;100505.22;1774851;80;21224;-67
2022/08/20 08:21:14;;;;;;;30.23;10.95;;;;;;;31.53;92.32;100513.92;1763579;81;21055;-69
2022/08/20 08:23:45;;;;;;;25.32;11.38;;;;;;;31.58;91.92;100512.77;1764686;80;21063;-68
2022/08/20 08:26:13;;;;;;;24.55;11.22;;;;;;;31.42;90.97;100502.52;1763321;81;21544;-68
2022/08/20 08:28:43;;;;;;;28.40;11.20;;;;;;;31.32;91.38;100511.71;1759160;80;21078;-69
2022/08/20 08:31:11;;;;;;;24.87;13.90;;;;;;;30.79;92.98;100508.95;1776397;80;21476;-68
2022/08/20 08:33:39;;;;;;;27.67;12.13;;;;;;;30.92;92.45;100506.86;1761364;80;21060;-69
2022/08/20 08:36:10;;;;;;;36.73;11.85;;;;;;;30.93;93.13;100506.66;1759545;80;21119;-68
2022/08/20 08:38:41;;;;;;;31.15;12.33;;;;;;;30.85;95.66;100490.88;1757244;80;21082;-69
2022/08/20 08:41:38;;;;;;;43.25;12.28;;;;;;;30.80;94.46;100495.15;1774396;81;21083;-69
2022/08/20 08:44:22;;;;;;;34.33;13.00;;;;;;;30.81;96.38;100493.63;1769843;80;21539;-68
2022/08/20 08:46:56;;;;;;;33.15;13.20;;;;;;;30.89;96.42;100487.34;1768315;80;21007;-68
2022/08/20 08:49:46;;;;;;;32.53;12.78;;;;;;;31.01;96.46;100483.58;1758767;80;21138;-69
2022/08/20 08:52:44;;;;;;;28.35;12.80;;;;;;;31.05;95.07;100481.64;1770010;80;21045;-68
2022/08/20 08:55:24;;;;;;;27.93;12.35;;;;;;;31.14;95.19;100486.23;1755312;80;21528;-69
2022/08/20 08:57:55;;;;;;;26.52;12.95;;;;;;;31.28;98.50;100491.05;1734991;81;21138;-69
2022/08/20 09:00:41;;;;;;;34.90;12.73;;;;;;;31.10;96.32;100487.18;1731889;82;21201;-69
2022/08/20 09:03:33;;;;;;;38.20;12.95;;;;;;;31.07;96.99;100488.09;1728742;82;21100;-68
2022/08/20 09:06:02;;;;;;;28.65;11.55;;;;;;;30.78;96.30;100479.91;1723675;82;21142;-69
2022/08/20 09:12:22;;;;;;;26.35;11.55;;;;;;;30.79;98.16;100481.56;1730721;81;21571;-69
2022/08/20 09:14:51;;;;;;;27.82;10.98;;;;;;;30.85;96.49;100474.92;1741645;82;21515;-69
2022/08/20 09:17:41;;;;;;;26.57;10.72;;;;;;;30.99;95.18;100474.99;1743836;82;21062;-69
2022/08/20 09:20:12;;;;;;;26.50;11.05;;;;;;;30.98;95.35;100475.48;1740931;82;21023;-68
2022/08/20 09:22:53;;;;;;;28.30;11.18;;;;;;;30.74;94.75;100480.33;1733259;82;21020;-69
2022/08/20 09:25:37;;;;;;;25.30;10.80;;;;;;;30.97;96.29;100483.68;1734556;82;21087;-69
2022/08/20 09:28:05;;;;;;;24.37;10.40;;;;;;;31.22;96.15;100479.39;1734576;82;21056;-68
2022/08/20 09:30:50;;;;;;;22.30;10.50;;;;;;;31.00;96.41;100485.40;1732436;82;21042;-69
2022/08/20 09:33:17;;;;;;;23.12;10.20;;;;;;;31.25;94.31;100480.84;1733352;82;21096;-69
2022/08/20 09:35:45;;;;;;;22.05;10.20;;;;;;;31.04;94.97;100474.66;1736926;82;21051;-69
2022/08/20 09:38:21;;;;;;;27.60;9.88;;;;;;;31.09;96.12;100482.05;1734171;82;21093;-69
2022/08/20 09:43:44;;;;;;;31.30;10.53;;;;;;;31.31;92.36;100490.14;1733252;82;21049;-69
2022/08/20 09:46:31;;;;;;;26.05;10.08;;;;;;;31.47;93.97;100488.10;1729890;82;21063;-69
2022/08/20 09:49:22;;;;;;;29.37;10.58;;;;;;;31.50;93.82;100493.84;1735870;82;21051;-68
2022/08/20 09:51:50;;;;;;;32.20;10.38;;;;;;;31.61;91.41;100496.41;1729249;82;21168;-69
2022/08/20 09:54:18;;;;;;;33.78;10.50;;;;;;;31.34;91.92;100501.69;1738578;82;21125;-69
2022/08/20 09:56:52;;;;;;;27.10;9.83;;;;;;;31.46;92.66;100500.59;1727255;82;21081;-69
2022/08/20 09:59:19;;;;;;;29.45;10.35;;;;;;;31.35;92.56;100501.20;1738993;82;21516;-69
2022/08/20 10:01:48;;;;;;;25.32;10.00;;;;;;;31.32;92.92;100500.27;1738518;82;21091;-69
2022/08/20 10:04:15;;;;;;;32.13;10.60;;;;;;;31.26;94.59;100497.09;1736482;82;21067;-69
2022/08/20 10:07:09;;;;;;;23.83;10.38;;;;;;;31.38;92.30;100495.97;1738582;82;21318;-69
2022/08/20 10:09:46;;;;;;;29.52;10.35;;;;;;;31.60;94.29;100491.29;1725365;82;21530;-69
2022/08/20 10:12:14;;;;;;;28.85;9.80;;;;;;;31.74;93.32;100488.39;1738703;82;21539;-69
2022/08/20 10:14:41;;;;;;;27.00;9.30;;;;;;;31.61;91.75;100484.92;1735349;82;21135;-68
2022/08/20 10:17:09;;;;;;;25.10;9.38;;;;;;;31.76;94.10;100485.53;1740313;82;21020;-69
2022/08/20 10:19:37;;;;;;;26.65;9.90;;;;;;;31.88;92.89;100478.53;1727998;82;21063;-69
2022/08/20 10:22:04;;;;;;;21.93;9.08;;;;;;;32.05;90.82;100477.59;1725030;82;21159;-69
2022/08/20 10:24:33;;;;;;;25.50;8.90;;;;;;;32.04;89.18;100481.29;1735159;82;21531;-69
2022/08/20 10:27:01;;;;;;;32.33;9.33;;;;;;;32.30;88.08;100477.72;1727625;82;21615;-69
2022/08/20 10:29:30;;;;;;;18.60;8.80;;;;;;;32.17;87.91;100480.94;1723142;82;21562;-68
2022/08/20 10:32:10;;;;;;;30.02;9.25;;;;;;;32.27;88.02;100482.64;1725534;82;21082;-68
2022/08/20 10:34:41;;;;;;;28.47;9.25;;;;;;;32.30;88.78;100475.54;1731886;82;21515;-69
2022/08/20 10:37:14;;;;;;;31.07;9.50;;;;;;;32.34;88.00;100469.59;1734291;82;21044;-69
2022/08/20 10:39:42;;;;;;;25.62;9.30;;;;;;;32.51;88.55;100479.24;1736814;82;21018;-69
2022/08/20 10:42:09;;;;;;;24.63;9.10;;;;;;;32.55;87.95;100474.86;1724158;82;21056;-69
2022/08/20 10:44:38;;;;;;;34.50;8.88;;;;;;;32.66;86.56;100476.31;1734170;82;21059;-69
2022/08/20 10:47:20;;;;;;;30.08;9.15;;;;;;;32.60;84.64;100471.84;1730269;82;21046;-69
2022/08/20 10:49:50;;;;;;;30.43;9.05;;;;;;;32.72;84.30;100474.12;1725785;82;21089;-69
2022/08/20 10:52:17;;;;;;;24.75;8.88;;;;;;;32.52;83.88;100472.89;1735766;82;21583;-69
2022/08/20 10:54:45;;;;;;;28.00;9.28;;;;;;;32.18;83.23;100470.08;1728427;82;21153;-69
2022/08/20 10:57:19;;;;;;;25.48;9.13;;;;;;;32.38;84.38;100465.97;1745460;81;20989;-69
2022/08/20 10:59:50;;;;;;;24.63;8.63;;;;;;;32.62;83.92;100458.30;1762114;80;20994;-69
2022/08/20 11:02:20;;;;;;;22.85;9.13;;;;;;;32.59;84.58;100452.09;1742125;81;21563;-69
2022/08/20 11:04:48;;;;;;;28.30;9.23;;;;;;;32.73;83.37;100446.97;1750599;80;21052;-69
2022/08/20 11:07:27;;;;;;;21.70;8.48;;;;;;;32.88;81.96;100447.46;1742697;81;21039;-69
2022/08/20 11:09:54;;;;;;;19.62;8.35;;;;;;;33.01;82.26;100443.90;1744938;80;21032;-68
2022/08/20 11:12:24;;;;;;;24.12;9.00;;;;;;;32.89;80.68;100439.78;1740977;80;21015;-69
2022/08/20 11:14:52;;;;;;;25.32;8.60;;;;;;;33.13;79.55;100434.19;1743727;80;21000;-69
2022/08/20 11:17:32;;;;;;;26.37;8.20;;;;;;;33.29;78.29;100434.15;1746780;81;21051;-69
2022/08/20 11:20:03;;;;;;;22.15;8.15;;;;;;;33.28;78.49;100437.84;1742787;80;21466;-69
2022/08/20 11:22:31;;;;;;;18.75;8.25;;;;;;;32.96;77.84;100418.91;1738765;81;21429;-68
2022/08/20 11:24:58;;;;;;;25.25;8.33;;;;;;;33.19;76.92;100423.66;1756025;80;21000;-68
2022/08/20 11:27:32;;;;;;;17.15;8.05;;;;;;;33.39;78.15;100424.28;1741072;81;21581;-69
2022/08/20 11:30:00;;;;;;;20.55;8.20;;;;;;;33.44;76.65;100429.79;1743807;80;21468;-68
2022/08/20 11:32:27;;;;;;;19.45;8.05;;;;;;;33.59;75.29;100430.76;1746698;80;21021;-69
2022/08/20 11:34:54;;;;;;;20.52;8.23;;;;;;;33.53;75.18;100427.11;1741266;80;21460;-69